SIA28 EDDF-WSSS
Flight info
| Callsign | SIA28 |
|---|---|
| Flight time | N/A |
| Altitude | 31000 |
| Route | SULUS7S SULUS Z650 VEMUT/N0484F350 DCT NELPA DCT PEPIK/N0482F370 DCT AMRAX DCT NARKA DCT RULES DCT ELROM DCT MOBRA DCT DENAK DCT DINRO DCT UDROS DCT ABSAX DCT REBLO P130 BODKA/N0484F390 P130 MAMED B449 RANAH L750 ZB G202 RK P628 IBANI L510 GURVI T1 OPONI/N0488F410 T1 BBS L759 PUT B579 VPL Y503 RINBA Y507 MAKNA Y511 TOPOR A464 ARAMA ARAMA1A |
| Aircraft | A359/H-SDE2E3GHIJ3J4J5LM1ORWXY/LB1D1 |
Departure
| Time | N/A |
|---|---|
| Airport | Frankfurt Main Airport (EDDF) |
Arrival
| Time | 2026-05-05 02:45 |
|---|---|
| Airport | Singapore Changi Airport (WSSS) |
| Time | Latitude | Longitude | Altitude | Speed | Heading |
|---|---|---|---|---|---|
| 2026-05-05 02:18 | 2.08594 | 102.42806 | 34652 ft | 499 kts | 126° |
| 2026-05-05 02:19 | 2.06516 | 102.45563 | 34426 ft | 500 kts | 126° |
| 2026-05-05 02:19 | 2.04435 | 102.48323 | 34197 ft | 501 kts | 126° |
| 2026-05-05 02:19 | 2.02331 | 102.51115 | 33956 ft | 500 kts | 126° |
| 2026-05-05 02:19 | 2.00241 | 102.53892 | 33172 ft | 499 kts | 126° |
| 2026-05-05 02:20 | 1.98143 | 102.56680 | 32222 ft | 501 kts | 126° |
| 2026-05-05 02:20 | 1.96058 | 102.59447 | 31294 ft | 503 kts | 126° |
| 2026-05-05 02:20 | 1.93943 | 102.62253 | 30317 ft | 506 kts | 126° |
| 2026-05-05 02:20 | 1.91807 | 102.65088 | 29215 ft | 507 kts | 126° |
| 2026-05-05 02:21 | 1.89705 | 102.67876 | 28387 ft | 504 kts | 126° |
| 2026-05-05 02:21 | 1.87605 | 102.70663 | 27656 ft | 498 kts | 126° |
| 2026-05-05 02:21 | 1.85523 | 102.73424 | 26924 ft | 492 kts | 126° |
| 2026-05-05 02:21 | 1.83515 | 102.76089 | 26206 ft | 488 kts | 126° |
| 2026-05-05 02:22 | 1.81475 | 102.78797 | 25482 ft | 483 kts | 126° |
| 2026-05-05 02:22 | 1.79473 | 102.81454 | 24772 ft | 479 kts | 126° |
| 2026-05-05 02:22 | 1.77467 | 102.84116 | 24060 ft | 475 kts | 126° |
| 2026-05-05 02:22 | 1.75512 | 102.86711 | 23329 ft | 471 kts | 126° |
| 2026-05-05 02:23 | 1.73695 | 102.89413 | 22848 ft | 459 kts | 119° |
| 2026-05-05 02:23 | 1.72152 | 102.92149 | 22725 ft | 439 kts | 118° |
| 2026-05-05 02:23 | 1.70727 | 102.94754 | 22609 ft | 422 kts | 117° |
| 2026-05-05 02:23 | 1.69352 | 102.97298 | 22467 ft | 407 kts | 117° |
| 2026-05-05 02:24 | 1.68047 | 102.99726 | 22296 ft | 393 kts | 117° |
| 2026-05-05 02:24 | 1.66768 | 103.02117 | 22112 ft | 381 kts | 117° |
| 2026-05-05 02:24 | 1.65553 | 103.04391 | 21946 ft | 369 kts | 117° |
| 2026-05-05 02:24 | 1.64362 | 103.06622 | 21785 ft | 358 kts | 117° |
| 2026-05-05 02:25 | 1.63197 | 103.08806 | 21477 ft | 351 kts | 117° |
| 2026-05-05 02:25 | 1.62014 | 103.10917 | 21005 ft | 351 kts | 122° |
| 2026-05-05 02:25 | 1.60367 | 103.12727 | 20575 ft | 351 kts | 139° |
| 2026-05-05 02:25 | 1.58407 | 103.14134 | 20170 ft | 349 kts | 144° |
| 2026-05-05 02:26 | 1.56371 | 103.15470 | 19767 ft | 347 kts | 145° |
| 2026-05-05 02:26 | 1.54366 | 103.16774 | 19376 ft | 345 kts | 145° |
| 2026-05-05 02:26 | 1.52352 | 103.18090 | 18980 ft | 343 kts | 144° |
| 2026-05-05 02:26 | 1.50376 | 103.19386 | 18582 ft | 341 kts | 144° |
| 2026-05-05 02:27 | 1.48390 | 103.20692 | 18194 ft | 339 kts | 144° |
| 2026-05-05 02:27 | 1.46447 | 103.21972 | 17769 ft | 336 kts | 144° |
| 2026-05-05 02:27 | 1.44494 | 103.23260 | 17387 ft | 332 kts | 144° |
| 2026-05-05 02:27 | 1.42569 | 103.24529 | 16998 ft | 329 kts | 144° |
| 2026-05-05 02:28 | 1.40688 | 103.25770 | 16632 ft | 325 kts | 144° |
| 2026-05-05 02:28 | 1.38804 | 103.27014 | 16260 ft | 322 kts | 144° |
| 2026-05-05 02:28 | 1.36934 | 103.28248 | 15877 ft | 319 kts | 144° |
| 2026-05-05 02:28 | 1.35112 | 103.29451 | 15518 ft | 316 kts | 145° |
| 2026-05-05 02:29 | 1.33282 | 103.30658 | 15169 ft | 313 kts | 145° |
| 2026-05-05 02:29 | 1.31469 | 103.31855 | 14803 ft | 310 kts | 145° |
| 2026-05-05 02:29 | 1.29691 | 103.33028 | 14454 ft | 308 kts | 145° |
| 2026-05-05 02:29 | 1.27904 | 103.34207 | 14099 ft | 305 kts | 145° |
| 2026-05-05 02:30 | 1.26156 | 103.35361 | 13757 ft | 303 kts | 145° |
| 2026-05-05 02:30 | 1.24388 | 103.36528 | 13374 ft | 300 kts | 145° |
| 2026-05-05 02:30 | 1.22671 | 103.37661 | 13041 ft | 297 kts | 145° |
| 2026-05-05 02:30 | 1.20951 | 103.38796 | 12696 ft | 293 kts | 145° |
| 2026-05-05 02:31 | 1.19273 | 103.39903 | 12362 ft | 290 kts | 145° |
| 2026-05-05 02:31 | 1.17594 | 103.41011 | 12026 ft | 286 kts | 146° |
| 2026-05-05 02:31 | 1.15951 | 103.42095 | 11707 ft | 283 kts | 146° |
| 2026-05-05 02:31 | 1.14305 | 103.43181 | 11435 ft | 281 kts | 146° |
| 2026-05-05 02:32 | 1.12694 | 103.44244 | 11126 ft | 279 kts | 146° |
| 2026-05-05 02:32 | 1.11071 | 103.45315 | 10807 ft | 278 kts | 146° |
| 2026-05-05 02:32 | 1.09471 | 103.46370 | 10648 ft | 269 kts | 146° |
| 2026-05-05 02:32 | 1.07954 | 103.47370 | 10535 ft | 259 kts | 146° |
| 2026-05-05 02:33 | 1.06473 | 103.48348 | 10435 ft | 250 kts | 146° |
| 2026-05-05 02:33 | 1.05161 | 103.49467 | 10159 ft | 247 kts | 129° |
| 2026-05-05 02:33 | 1.04441 | 103.51028 | 9912 ft | 254 kts | 100° |
| 2026-05-05 02:33 | 1.04451 | 103.52814 | 9605 ft | 259 kts | 84° |
| 2026-05-05 02:34 | 1.04689 | 103.54589 | 9303 ft | 261 kts | 82° |
| 2026-05-05 02:34 | 1.04956 | 103.56388 | 9018 ft | 259 kts | 82° |
| 2026-05-05 02:34 | 1.05211 | 103.58151 | 8748 ft | 258 kts | 83° |
| 2026-05-05 02:34 | 1.05458 | 103.59930 | 8467 ft | 257 kts | 83° |
| 2026-05-05 02:35 | 1.05696 | 103.61680 | 8196 ft | 256 kts | 83° |
| 2026-05-05 02:35 | 1.05933 | 103.63444 | 7924 ft | 254 kts | 83° |
| 2026-05-05 02:35 | 1.06167 | 103.65204 | 7650 ft | 253 kts | 83° |
| 2026-05-05 02:35 | 1.06397 | 103.66932 | 7385 ft | 252 kts | 83° |
| 2026-05-05 02:36 | 1.06629 | 103.68680 | 7109 ft | 251 kts | 83° |
| 2026-05-05 02:36 | 1.06856 | 103.70392 | 6840 ft | 250 kts | 83° |
| 2026-05-05 02:36 | 1.07085 | 103.72127 | 6578 ft | 250 kts | 83° |
| 2026-05-05 02:36 | 1.07309 | 103.73831 | 6318 ft | 249 kts | 83° |
| 2026-05-05 02:37 | 1.07528 | 103.75554 | 6038 ft | 248 kts | 83° |
| 2026-05-05 02:37 | 1.07744 | 103.77258 | 5767 ft | 247 kts | 83° |
| 2026-05-05 02:37 | 1.07959 | 103.78943 | 5485 ft | 246 kts | 83° |
| 2026-05-05 02:37 | 1.08173 | 103.80623 | 5344 ft | 238 kts | 83° |
| 2026-05-05 02:38 | 1.08375 | 103.82211 | 5238 ft | 228 kts | 83° |
| 2026-05-05 02:38 | 1.08572 | 103.83749 | 5121 ft | 219 kts | 83° |
| 2026-05-05 02:38 | 1.08764 | 103.85252 | 4903 ft | 216 kts | 83° |
| 2026-05-05 02:38 | 1.08892 | 103.86236 | 4749 ft | 214 kts | 82° |
| 2026-05-05 02:39 | 1.09609 | 103.88028 | 4437 ft | 209 kts | 46° |
| 2026-05-05 02:39 | 1.10390 | 103.88576 | 4301 ft | 207 kts | 25° |
| 2026-05-05 02:39 | 1.12206 | 103.89180 | 4003 ft | 207 kts | 15° |
| 2026-05-05 02:39 | 1.13131 | 103.89430 | 3849 ft | 207 kts | 15° |
| 2026-05-05 02:40 | 1.14987 | 103.89933 | 3566 ft | 206 kts | 15° |
| 2026-05-05 02:40 | 1.15903 | 103.90187 | 3422 ft | 205 kts | 15° |
| 2026-05-05 02:40 | 1.17277 | 103.90527 | 3209 ft | 204 kts | 9° |
| 2026-05-05 02:40 | 1.18665 | 103.90891 | 2961 ft | 205 kts | 19° |
| 2026-05-05 02:41 | 1.19965 | 103.91424 | 2833 ft | 203 kts | 22° |
| 2026-05-05 02:41 | 1.21266 | 103.91970 | 2839 ft | 201 kts | 22° |
| 2026-05-05 02:41 | 1.22551 | 103.92508 | 2676 ft | 201 kts | 22° |
| 2026-05-05 02:41 | 1.23823 | 103.93032 | 2404 ft | 192 kts | 21° |
| 2026-05-05 02:42 | 1.25018 | 103.93538 | 2144 ft | 179 kts | 22° |
| 2026-05-05 02:42 | 1.26133 | 103.94013 | 1906 ft | 168 kts | 22° |
| 2026-05-05 02:42 | 1.27174 | 103.94455 | 1688 ft | 159 kts | 22° |
| 2026-05-05 02:42 | 1.28169 | 103.94879 | 1474 ft | 151 kts | 23° |
| 2026-05-05 02:43 | 1.29080 | 103.95268 | 1279 ft | 140 kts | 23° |
| 2026-05-05 02:43 | 1.29958 | 103.95641 | 1107 ft | 136 kts | 23° |
| 2026-05-05 02:43 | 1.30829 | 103.96011 | 929 ft | 136 kts | 23° |
| 2026-05-05 02:43 | 1.31701 | 103.96383 | 756 ft | 136 kts | 23° |
| 2026-05-05 02:44 | 1.32569 | 103.96757 | 585 ft | 136 kts | 23° |
| 2026-05-05 02:44 | 1.33441 | 103.97133 | 381 ft | 136 kts | 22° |
| 2026-05-05 02:44 | 1.34315 | 103.97495 | 213 ft | 135 kts | 22° |
| 2026-05-05 02:44 | 1.35176 | 103.97861 | 44 ft | 135 kts | 22° |
| 2026-05-05 02:45 | 1.35929 | 103.98181 | 37 ft | 85 kts | 24° |
| 2026-05-05 02:45 | 1.36278 | 103.98330 | 37 ft | 45 kts | 23° |
| 2026-05-05 02:45 | 1.36560 | 103.98453 | 37 ft | 43 kts | 27° |
| 2026-05-05 02:45 | 1.36740 | 103.98609 | 37 ft | 23 kts | 51° |
| 2026-05-05 02:46 | 1.36819 | 103.98715 | 37 ft | 0 kts | 55° |